sensor_id;sensor_type;location;lat;lon;timestamp;P1;durP1;ratioP1;P2;durP2;ratioP2
2710;SDS011;20721;47.402;8.550;2022-07-10T00:00:36;3.54;;;3.54;;
2710;SDS011;20721;47.402;8.550;2022-07-10T00:01:34;3.17;;;3.17;;
2710;SDS011;20721;47.402;8.550;2022-07-10T00:02:34;3.43;;;3.43;;
2710;SDS011;20721;47.402;8.550;2022-07-10T00:04:34;3.26;;;3.26;;
2710;SDS011;20721;47.402;8.550;2022-07-10T00:05:34;3.31;;;3.31;;
2710;SDS011;20721;47.402;8.550;2022-07-10T00:06:36;3.33;;;3.33;;
2710;SDS011;20721;47.402;8.550;2022-07-10T00:07:34;3.29;;;3.29;;
2710;SDS011;20721;47.402;8.550;2022-07-10T00:08:34;3.19;;;3.19;;
2710;SDS011;20721;47.402;8.550;2022-07-10T00:09:34;3.39;;;3.39;;
2710;SDS011;20721;47.402;8.550;2022-07-10T00:10:34;3.70;;;3.70;;
2710;SDS011;20721;47.402;8.550;2022-07-10T00:11:34;3.56;;;3.56;;
2710;SDS011;20721;47.402;8.550;2022-07-10T00:12:35;2.96;;;2.96;;
2710;SDS011;20721;47.402;8.550;2022-07-10T00:13:34;3.08;;;3.08;;
2710;SDS011;20721;47.402;8.550;2022-07-10T00:14:34;3.35;;;3.35;;
2710;SDS011;20721;47.402;8.550;2022-07-10T00:15:35;3.37;;;3.37;;
2710;SDS011;20721;47.402;8.550;2022-07-10T00:16:35;3.39;;;3.39;;
2710;SDS011;20721;47.402;8.550;2022-07-10T00:17:34;3.17;;;3.17;;
2710;SDS011;20721;47.402;8.550;2022-07-10T00:18:34;2.88;;;2.88;;
2710;SDS011;20721;47.402;8.550;2022-07-10T00:19:34;3.08;;;3.08;;
2710;SDS011;20721;47.402;8.550;2022-07-10T00:20:35;2.75;;;2.75;;
2710;SDS011;20721;47.402;8.550;2022-07-10T00:21:34;3.72;;;3.72;;
2710;SDS011;20721;47.402;8.550;2022-07-10T00:22:35;3.24;;;3.24;;
2710;SDS011;20721;47.402;8.550;2022-07-10T00:23:34;3.73;;;3.73;;
2710;SDS011;20721;47.402;8.550;2022-07-10T00:24:34;3.30;;;3.30;;
2710;SDS011;20721;47.402;8.550;2022-07-10T00:25:34;3.40;;;3.40;;
2710;SDS011;20721;47.402;8.550;2022-07-10T00:26:34;3.50;;;3.50;;
2710;SDS011;20721;47.402;8.550;2022-07-10T00:27:34;3.39;;;3.39;;
2710;SDS011;20721;47.402;8.550;2022-07-10T00:28:34;3.25;;;3.25;;
2710;SDS011;20721;47.402;8.550;2022-07-10T00:29:34;3.56;;;3.56;;
2710;SDS011;20721;47.402;8.550;2022-07-10T00:30:34;3.72;;;3.72;;
2710;SDS011;20721;47.402;8.550;2022-07-10T00:32:35;3.88;;;3.88;;
2710;SDS011;20721;47.402;8.550;2022-07-10T00:33:34;3.44;;;3.44;;
2710;SDS011;20721;47.402;8.550;2022-07-10T00:34:34;3.69;;;3.69;;
2710;SDS011;20721;47.402;8.550;2022-07-10T00:35:34;3.30;;;3.30;;
2710;SDS011;20721;47.402;8.550;2022-07-10T00:36:34;3.34;;;3.34;;
2710;SDS011;20721;47.402;8.550;2022-07-10T00:37:37;3.71;;;3.71;;
2710;SDS011;20721;47.402;8.550;2022-07-10T00:38:34;3.77;;;3.77;;
2710;SDS011;20721;47.402;8.550;2022-07-10T00:39:35;3.70;;;3.70;;
2710;SDS011;20721;47.402;8.550;2022-07-10T00:40:35;3.52;;;3.52;;
2710;SDS011;20721;47.402;8.550;2022-07-10T00:41:34;3.75;;;3.75;;
2710;SDS011;20721;47.402;8.550;2022-07-10T00:42:35;3.91;;;3.91;;
2710;SDS011;20721;47.402;8.550;2022-07-10T00:45:34;4.03;;;4.03;;
2710;SDS011;20721;47.402;8.550;2022-07-10T00:46:35;3.52;;;3.52;;
2710;SDS011;20721;47.402;8.550;2022-07-10T00:47:34;4.19;;;4.19;;
2710;SDS011;20721;47.402;8.550;2022-07-10T00:48:34;4.04;;;4.04;;
2710;SDS011;20721;47.402;8.550;2022-07-10T00:49:35;3.88;;;3.88;;
2710;SDS011;20721;47.402;8.550;2022-07-10T00:50:34;3.40;;;3.40;;
2710;SDS011;20721;47.402;8.550;2022-07-10T00:51:36;4.49;;;4.49;;
2710;SDS011;20721;47.402;8.550;2022-07-10T00:52:35;3.68;;;3.68;;
2710;SDS011;20721;47.402;8.550;2022-07-10T00:53:34;3.74;;;3.74;;
2710;SDS011;20721;47.402;8.550;2022-07-10T00:55:35;4.35;;;4.35;;
2710;SDS011;20721;47.402;8.550;2022-07-10T00:56:35;4.17;;;4.17;;
2710;SDS011;20721;47.402;8.550;2022-07-10T00:57:35;4.08;;;4.08;;
2710;SDS011;20721;47.402;8.550;2022-07-10T00:58:34;4.28;;;4.28;;
2710;SDS011;20721;47.402;8.550;2022-07-10T00:59:36;4.34;;;4.34;;
2710;SDS011;20721;47.402;8.550;2022-07-10T01:00:35;4.60;;;4.60;;
2710;SDS011;20721;47.402;8.550;2022-07-10T01:01:34;4.14;;;4.14;;
2710;SDS011;20721;47.402;8.550;2022-07-10T01:02:35;4.34;;;4.34;;
2710;SDS011;20721;47.402;8.550;2022-07-10T01:04:34;4.75;;;4.75;;
2710;SDS011;20721;47.402;8.550;2022-07-10T01:05:34;4.61;;;4.61;;
2710;SDS011;20721;47.402;8.550;2022-07-10T01:06:34;4.00;;;4.00;;
2710;SDS011;20721;47.402;8.550;2022-07-10T01:08:35;4.39;;;4.39;;
2710;SDS011;20721;47.402;8.550;2022-07-10T01:09:35;4.06;;;4.06;;
2710;SDS011;20721;47.402;8.550;2022-07-10T01:10:35;5.11;;;5.11;;
2710;SDS011;20721;47.402;8.550;2022-07-10T01:11:34;4.88;;;4.88;;
2710;SDS011;20721;47.402;8.550;2022-07-10T01:12:37;4.59;;;4.59;;
2710;SDS011;20721;47.402;8.550;2022-07-10T01:13:34;4.25;;;4.25;;
2710;SDS011;20721;47.402;8.550;2022-07-10T01:14:38;4.85;;;4.85;;
2710;SDS011;20721;47.402;8.550;2022-07-10T01:15:35;5.03;;;5.03;;
2710;SDS011;20721;47.402;8.550;2022-07-10T01:16:35;4.80;;;4.80;;
2710;SDS011;20721;47.402;8.550;2022-07-10T01:17:36;4.40;;;4.40;;
2710;SDS011;20721;47.402;8.550;2022-07-10T01:18:35;4.04;;;4.04;;
2710;SDS011;20721;47.402;8.550;2022-07-10T01:19:36;4.70;;;4.70;;
2710;SDS011;20721;47.402;8.550;2022-07-10T01:20:39;4.04;;;4.04;;
2710;SDS011;20721;47.402;8.550;2022-07-10T01:21:39;5.02;;;5.02;;
2710;SDS011;20721;47.402;8.550;2022-07-10T01:22:36;4.77;;;4.77;;
2710;SDS011;20721;47.402;8.550;2022-07-10T01:23:34;4.47;;;4.47;;
2710;SDS011;20721;47.402;8.550;2022-07-10T01:24:34;5.07;;;5.07;;
2710;SDS011;20721;47.402;8.550;2022-07-10T01:25:35;4.40;;;4.40;;
2710;SDS011;20721;47.402;8.550;2022-07-10T01:26:35;4.32;;;4.32;;
2710;SDS011;20721;47.402;8.550;2022-07-10T01:27:34;4.04;;;4.04;;
2710;SDS011;20721;47.402;8.550;2022-07-10T01:28:36;3.72;;;3.72;;
2710;SDS011;20721;47.402;8.550;2022-07-10T01:29:35;4.93;;;4.93;;
2710;SDS011;20721;47.402;8.550;2022-07-10T01:30:35;4.78;;;4.78;;
2710;SDS011;20721;47.402;8.550;2022-07-10T01:31:35;4.20;;;4.20;;
2710;SDS011;20721;47.402;8.550;2022-07-10T01:32:36;4.40;;;4.40;;
2710;SDS011;20721;47.402;8.550;2022-07-10T01:33:34;4.27;;;4.27;;
2710;SDS011;20721;47.402;8.550;2022-07-10T01:34:34;3.92;;;3.92;;
2710;SDS011;20721;47.402;8.550;2022-07-10T01:35:35;4.14;;;4.14;;
2710;SDS011;20721;47.402;8.550;2022-07-10T01:37:34;4.36;;;4.36;;
2710;SDS011;20721;47.402;8.550;2022-07-10T01:38:34;4.16;;;4.16;;
2710;SDS011;20721;47.402;8.550;2022-07-10T01:39:36;3.68;;;3.68;;
2710;SDS011;20721;47.402;8.550;2022-07-10T01:40:34;3.94;;;3.94;;
2710;SDS011;20721;47.402;8.550;2022-07-10T01:41:35;4.37;;;4.37;;
2710;SDS011;20721;47.402;8.550;2022-07-10T01:45:35;4.37;;;4.37;;
2710;SDS011;20721;47.402;8.550;2022-07-10T01:46:42;4.40;;;4.40;;
2710;SDS011;20721;47.402;8.550;2022-07-10T01:48:34;4.80;;;4.80;;
2710;SDS011;20721;47.402;8.550;2022-07-10T01:49:34;4.17;;;4.17;;
2710;SDS011;20721;47.402;8.550;2022-07-10T01:50:34;4.20;;;4.20;;
2710;SDS011;20721;47.402;8.550;2022-07-10T01:51:37;4.02;;;4.02;;
2710;SDS011;20721;47.402;8.550;2022-07-10T01:52:35;4.09;;;4.09;;
2710;SDS011;20721;47.402;8.550;2022-07-10T01:53:35;4.58;;;4.58;;
2710;SDS011;20721;47.402;8.550;2022-07-10T01:54:34;4.07;;;4.07;;
2710;SDS011;20721;47.402;8.550;2022-07-10T01:55:35;4.78;;;4.78;;
2710;SDS011;20721;47.402;8.550;2022-07-10T01:56:35;4.53;;;4.53;;
2710;SDS011;20721;47.402;8.550;2022-07-10T01:57:37;4.74;;;4.74;;
2710;SDS011;20721;47.402;8.550;2022-07-10T01:58:35;4.63;;;4.63;;
2710;SDS011;20721;47.402;8.550;2022-07-10T02:00:35;4.84;;;4.84;;
2710;SDS011;20721;47.402;8.550;2022-07-10T02:01:34;4.32;;;4.32;;
2710;SDS011;20721;47.402;8.550;2022-07-10T02:03:47;4.82;;;4.82;;
2710;SDS011;20721;47.402;8.550;2022-07-10T02:04:44;4.86;;;4.86;;
2710;SDS011;20721;47.402;8.550;2022-07-10T02:05:34;5.18;;;5.18;;
2710;SDS011;20721;47.402;8.550;2022-07-10T02:06:35;4.73;;;4.73;;
2710;SDS011;20721;47.402;8.550;2022-07-10T02:07:36;5.11;;;5.11;;
2710;SDS011;20721;47.402;8.550;2022-07-10T02:08:35;4.87;;;4.87;;
2710;SDS011;20721;47.402;8.550;2022-07-10T02:09:35;5.22;;;5.22;;
2710;SDS011;20721;47.402;8.550;2022-07-10T02:10:35;4.31;;;4.31;;
2710;SDS011;20721;47.402;8.550;2022-07-10T02:11:34;4.26;;;4.26;;
2710;SDS011;20721;47.402;8.550;2022-07-10T02:12:35;4.49;;;4.49;;
2710;SDS011;20721;47.402;8.550;2022-07-10T02:13:37;4.68;;;4.68;;
2710;SDS011;20721;47.402;8.550;2022-07-10T02:14:35;4.98;;;4.98;;
2710;SDS011;20721;47.402;8.550;2022-07-10T02:15:35;5.37;;;5.37;;
2710;SDS011;20721;47.402;8.550;2022-07-10T02:16:35;5.07;;;5.07;;
2710;SDS011;20721;47.402;8.550;2022-07-10T02:17:34;4.95;;;4.95;;
2710;SDS011;20721;47.402;8.550;2022-07-10T02:18:35;5.07;;;5.07;;
2710;SDS011;20721;47.402;8.550;2022-07-10T02:19:35;4.69;;;4.69;;
2710;SDS011;20721;47.402;8.550;2022-07-10T02:20:35;4.83;;;4.83;;
2710;SDS011;20721;47.402;8.550;2022-07-10T02:21:35;5.10;;;5.10;;
2710;SDS011;20721;47.402;8.550;2022-07-10T02:23:35;5.13;;;5.13;;
2710;SDS011;20721;47.402;8.550;2022-07-10T02:24:35;4.54;;;4.54;;
2710;SDS011;20721;47.402;8.550;2022-07-10T02:25:35;4.93;;;4.93;;
2710;SDS011;20721;47.402;8.550;2022-07-10T02:26:35;4.66;;;4.66;;
2710;SDS011;20721;47.402;8.550;2022-07-10T02:27:35;4.82;;;4.82;;
2710;SDS011;20721;47.402;8.550;2022-07-10T02:28:38;4.55;;;4.55;;
2710;SDS011;20721;47.402;8.550;2022-07-10T02:30:35;4.62;;;4.62;;
2710;SDS011;20721;47.402;8.550;2022-07-10T02:32:35;4.35;;;4.35;;
2710;SDS011;20721;47.402;8.550;2022-07-10T02:33:35;4.45;;;4.45;;
2710;SDS011;20721;47.402;8.550;2022-07-10T02:34:37;4.38;;;4.38;;
2710;SDS011;20721;47.402;8.550;2022-07-10T02:36:35;5.19;;;5.19;;
2710;SDS011;20721;47.402;8.550;2022-07-10T02:37:35;4.79;;;4.79;;
2710;SDS011;20721;47.402;8.550;2022-07-10T02:39:35;4.73;;;4.73;;
2710;SDS011;20721;47.402;8.550;2022-07-10T02:40:35;5.33;;;5.33;;
2710;SDS011;20721;47.402;8.550;2022-07-10T02:41:35;4.74;;;4.74;;
2710;SDS011;20721;47.402;8.550;2022-07-10T02:42:35;4.86;;;4.86;;
2710;SDS011;20721;47.402;8.550;2022-07-10T02:43:35;5.34;;;5.34;;
2710;SDS011;20721;47.402;8.550;2022-07-10T02:44:35;5.01;;;5.01;;
2710;SDS011;20721;47.402;8.550;2022-07-10T02:46:35;4.25;;;4.25;;
2710;SDS011;20721;47.402;8.550;2022-07-10T02:47:35;5.21;;;5.21;;
2710;SDS011;20721;47.402;8.550;2022-07-10T02:48:35;5.19;;;5.19;;
2710;SDS011;20721;47.402;8.550;2022-07-10T02:49:35;4.88;;;4.88;;
2710;SDS011;20721;47.402;8.550;2022-07-10T02:50:35;4.77;;;4.77;;
2710;SDS011;20721;47.402;8.550;2022-07-10T02:51:35;4.55;;;4.55;;
2710;SDS011;20721;47.402;8.550;2022-07-10T02:52:35;4.33;;;4.33;;
2710;SDS011;20721;47.402;8.550;2022-07-10T02:53:35;4.77;;;4.77;;
2710;SDS011;20721;47.402;8.550;2022-07-10T02:54:35;4.84;;;4.84;;
2710;SDS011;20721;47.402;8.550;2022-07-10T02:55:35;5.14;;;5.14;;
2710;SDS011;20721;47.402;8.550;2022-07-10T02:56:35;4.62;;;4.62;;
2710;SDS011;20721;47.402;8.550;2022-07-10T02:57:35;4.68;;;4.68;;
2710;SDS011;20721;47.402;8.550;2022-07-10T02:58:37;5.20;;;5.20;;
2710;SDS011;20721;47.402;8.550;2022-07-10T02:59:35;5.29;;;5.29;;
2710;SDS011;20721;47.402;8.550;2022-07-10T03:00:36;5.02;;;5.02;;
2710;SDS011;20721;47.402;8.550;2022-07-10T03:01:35;4.29;;;4.29;;
2710;SDS011;20721;47.402;8.550;2022-07-10T03:02:35;4.46;;;4.46;;
2710;SDS011;20721;47.402;8.550;2022-07-10T03:03:35;4.57;;;4.57;;
2710;SDS011;20721;47.402;8.550;2022-07-10T03:04:35;5.44;;;5.44;;
2710;SDS011;20721;47.402;8.550;2022-07-10T03:05:38;5.05;;;5.05;;
2710;SDS011;20721;47.402;8.550;2022-07-10T03:06:35;5.09;;;5.09;;
2710;SDS011;20721;47.402;8.550;2022-07-10T03:07:35;4.83;;;4.83;;
2710;SDS011;20721;47.402;8.550;2022-07-10T03:08:35;4.81;;;4.81;;
2710;SDS011;20721;47.402;8.550;2022-07-10T03:09:35;4.85;;;4.85;;
2710;SDS011;20721;47.402;8.550;2022-07-10T03:10:35;4.67;;;4.67;;
2710;SDS011;20721;47.402;8.550;2022-07-10T03:12:35;4.75;;;4.75;;
2710;SDS011;20721;47.402;8.550;2022-07-10T03:15:35;5.20;;;5.20;;
2710;SDS011;20721;47.402;8.550;2022-07-10T03:16:35;4.88;;;4.88;;
2710;SDS011;20721;47.402;8.550;2022-07-10T03:17:35;5.61;;;5.61;;
2710;SDS011;20721;47.402;8.550;2022-07-10T03:18:35;4.53;;;4.53;;
2710;SDS011;20721;47.402;8.550;2022-07-10T03:19:35;4.59;;;4.59;;
2710;SDS011;20721;47.402;8.550;2022-07-10T03:20:35;4.40;;;4.40;;
2710;SDS011;20721;47.402;8.550;2022-07-10T03:21:35;4.79;;;4.79;;
2710;SDS011;20721;47.402;8.550;2022-07-10T03:22:35;4.87;;;4.87;;
2710;SDS011;20721;47.402;8.550;2022-07-10T03:23:35;4.54;;;4.54;;
2710;SDS011;20721;47.402;8.550;2022-07-10T03:24:35;4.59;;;4.59;;
2710;SDS011;20721;47.402;8.550;2022-07-10T03:25:35;4.90;;;4.90;;
2710;SDS011;20721;47.402;8.550;2022-07-10T03:26:35;4.78;;;4.78;;
2710;SDS011;20721;47.402;8.550;2022-07-10T03:27:35;4.75;;;4.75;;
2710;SDS011;20721;47.402;8.550;2022-07-10T03:30:35;5.12;;;5.12;;
2710;SDS011;20721;47.402;8.550;2022-07-10T03:32:35;4.96;;;4.96;;
2710;SDS011;20721;47.402;8.550;2022-07-10T03:33:35;4.69;;;4.69;;
2710;SDS011;20721;47.402;8.550;2022-07-10T03:34:35;4.81;;;4.81;;
2710;SDS011;20721;47.402;8.550;2022-07-10T03:37:35;4.67;;;4.67;;
2710;SDS011;20721;47.402;8.550;2022-07-10T03:38:35;5.11;;;5.11;;
2710;SDS011;20721;47.402;8.550;2022-07-10T03:39:35;4.77;;;4.77;;
2710;SDS011;20721;47.402;8.550;2022-07-10T03:40:37;4.82;;;4.82;;
2710;SDS011;20721;47.402;8.550;2022-07-10T03:41:35;5.20;;;5.20;;
2710;SDS011;20721;47.402;8.550;2022-07-10T03:42:38;4.76;;;4.76;;
2710;SDS011;20721;47.402;8.550;2022-07-10T03:43:35;4.78;;;4.78;;
2710;SDS011;20721;47.402;8.550;2022-07-10T03:44:35;4.83;;;4.83;;
2710;SDS011;20721;47.402;8.550;2022-07-10T03:45:35;4.72;;;4.72;;
2710;SDS011;20721;47.402;8.550;2022-07-10T03:46:35;5.05;;;5.05;;
2710;SDS011;20721;47.402;8.550;2022-07-10T03:47:35;5.17;;;5.17;;
2710;SDS011;20721;47.402;8.550;2022-07-10T03:48:38;5.18;;;5.18;;
2710;SDS011;20721;47.402;8.550;2022-07-10T03:49:35;4.75;;;4.75;;
2710;SDS011;20721;47.402;8.550;2022-07-10T03:51:35;4.56;;;4.56;;
2710;SDS011;20721;47.402;8.550;2022-07-10T03:52:35;5.11;;;5.11;;
2710;SDS011;20721;47.402;8.550;2022-07-10T03:53:35;4.90;;;4.90;;
2710;SDS011;20721;47.402;8.550;2022-07-10T03:55:35;4.86;;;4.86;;
2710;SDS011;20721;47.402;8.550;2022-07-10T03:56:45;5.16;;;5.16;;
2710;SDS011;20721;47.402;8.550;2022-07-10T03:57:45;4.51;;;4.51;;
2710;SDS011;20721;47.402;8.550;2022-07-10T03:58:35;5.26;;;5.26;;
2710;SDS011;20721;47.402;8.550;2022-07-10T03:59:35;4.47;;;4.47;;
2710;SDS011;20721;47.402;8.550;2022-07-10T04:00:36;4.68;;;4.68;;
2710;SDS011;20721;47.402;8.550;2022-07-10T04:01:35;4.94;;;4.94;;
2710;SDS011;20721;47.402;8.550;2022-07-10T04:03:35;5.35;;;5.35;;
2710;SDS011;20721;47.402;8.550;2022-07-10T04:04:35;5.08;;;5.08;;
2710;SDS011;20721;47.402;8.550;2022-07-10T04:05:35;4.25;;;4.25;;
2710;SDS011;20721;47.402;8.550;2022-07-10T04:06:35;5.39;;;5.39;;
2710;SDS011;20721;47.402;8.550;2022-07-10T04:07:35;4.57;;;4.57;;
2710;SDS011;20721;47.402;8.550;2022-07-10T04:08:35;5.43;;;5.43;;
2710;SDS011;20721;47.402;8.550;2022-07-10T04:09:35;5.01;;;5.01;;
2710;SDS011;20721;47.402;8.550;2022-07-10T04:11:35;4.93;;;4.93;;
2710;SDS011;20721;47.402;8.550;2022-07-10T04:12:35;5.37;;;5.37;;
2710;SDS011;20721;47.402;8.550;2022-07-10T04:13:35;4.72;;;4.72;;
2710;SDS011;20721;47.402;8.550;2022-07-10T04:14:35;5.42;;;5.42;;
2710;SDS011;20721;47.402;8.550;2022-07-10T04:15:35;4.35;;;4.35;;
2710;SDS011;20721;47.402;8.550;2022-07-10T04:16:35;4.95;;;4.95;;
2710;SDS011;20721;47.402;8.550;2022-07-10T04:17:35;4.77;;;4.77;;
2710;SDS011;20721;47.402;8.550;2022-07-10T04:18:35;4.97;;;4.97;;
2710;SDS011;20721;47.402;8.550;2022-07-10T04:19:38;5.17;;;5.17;;
2710;SDS011;20721;47.402;8.550;2022-07-10T04:20:35;5.00;;;5.00;;
2710;SDS011;20721;47.402;8.550;2022-07-10T04:21:35;5.10;;;5.10;;
2710;SDS011;20721;47.402;8.550;2022-07-10T04:22:35;4.72;;;4.72;;
2710;SDS011;20721;47.402;8.550;2022-07-10T04:24:35;5.68;;;5.68;;
2710;SDS011;20721;47.402;8.550;2022-07-10T04:25:38;4.95;;;4.95;;
2710;SDS011;20721;47.402;8.550;2022-07-10T04:26:35;5.59;;;5.59;;
2710;SDS011;20721;47.402;8.550;2022-07-10T04:27:35;5.22;;;5.22;;
2710;SDS011;20721;47.402;8.550;2022-07-10T04:28:35;5.07;;;5.07;;
2710;SDS011;20721;47.402;8.550;2022-07-10T04:30:35;4.78;;;4.78;;
2710;SDS011;20721;47.402;8.550;2022-07-10T04:31:35;5.31;;;5.31;;
2710;SDS011;20721;47.402;8.550;2022-07-10T04:32:35;4.99;;;4.99;;
2710;SDS011;20721;47.402;8.550;2022-07-10T04:33:35;4.94;;;4.94;;
2710;SDS011;20721;47.402;8.550;2022-07-10T04:34:35;4.98;;;4.98;;
2710;SDS011;20721;47.402;8.550;2022-07-10T04:35:35;4.95;;;4.95;;
2710;SDS011;20721;47.402;8.550;2022-07-10T04:37:35;4.88;;;4.88;;
2710;SDS011;20721;47.402;8.550;2022-07-10T04:38:35;4.93;;;4.93;;
2710;SDS011;20721;47.402;8.550;2022-07-10T04:39:36;5.51;;;5.51;;
2710;SDS011;20721;47.402;8.550;2022-07-10T04:40:35;5.47;;;5.47;;
2710;SDS011;20721;47.402;8.550;2022-07-10T04:41:35;4.89;;;4.89;;
2710;SDS011;20721;47.402;8.550;2022-07-10T04:42:36;6.20;;;6.20;;
2710;SDS011;20721;47.402;8.550;2022-07-10T04:43:35;4.79;;;4.79;;
2710;SDS011;20721;47.402;8.550;2022-07-10T04:44:35;5.17;;;5.17;;
2710;SDS011;20721;47.402;8.550;2022-07-10T04:45:35;4.98;;;4.98;;
2710;SDS011;20721;47.402;8.550;2022-07-10T04:46:35;4.72;;;4.72;;
2710;SDS011;20721;47.402;8.550;2022-07-10T04:47:35;5.75;;;5.75;;
2710;SDS011;20721;47.402;8.550;2022-07-10T04:50:35;5.53;;;5.53;;
2710;SDS011;20721;47.402;8.550;2022-07-10T04:52:35;5.18;;;5.18;;
2710;SDS011;20721;47.402;8.550;2022-07-10T04:55:35;5.31;;;5.31;;
2710;SDS011;20721;47.402;8.550;2022-07-10T04:56:39;5.37;;;5.37;;
2710;SDS011;20721;47.402;8.550;2022-07-10T04:57:35;5.40;;;5.40;;
2710;SDS011;20721;47.402;8.550;2022-07-10T04:59:35;5.00;;;5.00;;
2710;SDS011;20721;47.402;8.550;2022-07-10T05:00:35;5.45;;;5.45;;
2710;SDS011;20721;47.402;8.550;2022-07-10T05:01:35;5.56;;;5.56;;
2710;SDS011;20721;47.402;8.550;2022-07-10T05:02:38;6.08;;;6.08;;
2710;SDS011;20721;47.402;8.550;2022-07-10T05:03:35;5.47;;;5.47;;
2710;SDS011;20721;47.402;8.550;2022-07-10T05:04:35;5.72;;;5.72;;
2710;SDS011;20721;47.402;8.550;2022-07-10T05:05:35;5.43;;;5.43;;
2710;SDS011;20721;47.402;8.550;2022-07-10T05:07:35;5.29;;;5.29;;
2710;SDS011;20721;47.402;8.550;2022-07-10T05:08:35;5.60;;;5.60;;
2710;SDS011;20721;47.402;8.550;2022-07-10T05:10:35;5.65;;;5.65;;
2710;SDS011;20721;47.402;8.550;2022-07-10T05:13:35;5.14;;;5.14;;
2710;SDS011;20721;47.402;8.550;2022-07-10T05:15:35;5.02;;;5.02;;
2710;SDS011;20721;47.402;8.550;2022-07-10T05:16:35;4.95;;;4.95;;
2710;SDS011;20721;47.402;8.550;2022-07-10T05:17:35;5.35;;;5.35;;
2710;SDS011;20721;47.402;8.550;2022-07-10T05:18:35;4.99;;;4.99;;
2710;SDS011;20721;47.402;8.550;2022-07-10T05:19:35;5.11;;;5.11;;
2710;SDS011;20721;47.402;8.550;2022-07-10T05:20:35;5.52;;;5.52;;
2710;SDS011;20721;47.402;8.550;2022-07-10T05:21:35;5.32;;;5.32;;
2710;SDS011;20721;47.402;8.550;2022-07-10T05:22:35;6.11;;;6.11;;
2710;SDS011;20721;47.402;8.550;2022-07-10T05:23:35;4.66;;;4.66;;
2710;SDS011;20721;47.402;8.550;2022-07-10T05:24:35;5.25;;;5.25;;
2710;SDS011;20721;47.402;8.550;2022-07-10T05:25:37;5.77;;;5.77;;
2710;SDS011;20721;47.402;8.550;2022-07-10T05:27:36;5.12;;;5.12;;
2710;SDS011;20721;47.402;8.550;2022-07-10T05:28:35;5.50;;;5.50;;
2710;SDS011;20721;47.402;8.550;2022-07-10T05:29:36;4.73;;;4.73;;
2710;SDS011;20721;47.402;8.550;2022-07-10T05:30:35;5.31;;;5.31;;
2710;SDS011;20721;47.402;8.550;2022-07-10T05:31:35;5.24;;;5.24;;
2710;SDS011;20721;47.402;8.550;2022-07-10T05:32:41;5.29;;;5.29;;
2710;SDS011;20721;47.402;8.550;2022-07-10T05:33:39;5.25;;;5.25;;
2710;SDS011;20721;47.402;8.550;2022-07-10T05:34:35;4.97;;;4.97;;
2710;SDS011;20721;47.402;8.550;2022-07-10T05:35:36;5.65;;;5.65;;
2710;SDS011;20721;47.402;8.550;2022-07-10T05:36:35;5.46;;;5.46;;
2710;SDS011;20721;47.402;8.550;2022-07-10T05:37:35;4.59;;;4.59;;
2710;SDS011;20721;47.402;8.550;2022-07-10T05:38:35;5.22;;;5.22;;
2710;SDS011;20721;47.402;8.550;2022-07-10T05:39:38;5.07;;;5.07;;
2710;SDS011;20721;47.402;8.550;2022-07-10T05:40:35;5.30;;;5.30;;
2710;SDS011;20721;47.402;8.550;2022-07-10T05:41:35;4.90;;;4.90;;
2710;SDS011;20721;47.402;8.550;2022-07-10T05:42:35;4.85;;;4.85;;
2710;SDS011;20721;47.402;8.550;2022-07-10T05:43:35;5.21;;;5.21;;
2710;SDS011;20721;47.402;8.550;2022-07-10T05:44:35;5.35;;;5.35;;
2710;SDS011;20721;47.402;8.550;2022-07-10T05:45:35;5.62;;;5.62;;
2710;SDS011;20721;47.402;8.550;2022-07-10T05:46:35;4.89;;;4.89;;
2710;SDS011;20721;47.402;8.550;2022-07-10T05:47:35;4.91;;;4.91;;
2710;SDS011;20721;47.402;8.550;2022-07-10T05:48:35;5.34;;;5.34;;
2710;SDS011;20721;47.402;8.550;2022-07-10T05:49:35;5.00;;;5.00;;
2710;SDS011;20721;47.402;8.550;2022-07-10T05:50:35;5.25;;;5.25;;
2710;SDS011;20721;47.402;8.550;2022-07-10T05:51:43;5.01;;;5.01;;
2710;SDS011;20721;47.402;8.550;2022-07-10T05:52:35;5.07;;;5.07;;
2710;SDS011;20721;47.402;8.550;2022-07-10T05:53:35;5.23;;;5.23;;
2710;SDS011;20721;47.402;8.550;2022-07-10T05:54:35;4.91;;;4.91;;
2710;SDS011;20721;47.402;8.550;2022-07-10T05:55:35;5.34;;;5.34;;
2710;SDS011;20721;47.402;8.550;2022-07-10T05:56:35;5.39;;;5.39;;
2710;SDS011;20721;47.402;8.550;2022-07-10T05:57:35;5.11;;;5.11;;
2710;SDS011;20721;47.402;8.550;2022-07-10T05:58:35;5.58;;;5.58;;
2710;SDS011;20721;47.402;8.550;2022-07-10T05:59:35;5.59;;;5.59;;
2710;SDS011;20721;47.402;8.550;2022-07-10T06:00:35;4.94;;;4.94;;
2710;SDS011;20721;47.402;8.550;2022-07-10T06:01:36;5.81;;;5.81;;
2710;SDS011;20721;47.402;8.550;2022-07-10T06:02:36;5.66;;;5.66;;
2710;SDS011;20721;47.402;8.550;2022-07-10T06:03:36;5.62;;;5.62;;
2710;SDS011;20721;47.402;8.550;2022-07-10T06:05:35;5.04;;;5.04;;
2710;SDS011;20721;47.402;8.550;2022-07-10T06:06:35;4.93;;;4.93;;
2710;SDS011;20721;47.402;8.550;2022-07-10T06:07:36;5.57;;;5.57;;
2710;SDS011;20721;47.402;8.550;2022-07-10T06:08:35;4.89;;;4.89;;
2710;SDS011;20721;47.402;8.550;2022-07-10T06:09:35;4.88;;;4.88;;
2710;SDS011;20721;47.402;8.550;2022-07-10T06:10:39;5.26;;;5.26;;
2710;SDS011;20721;47.402;8.550;2022-07-10T06:11:35;5.04;;;5.04;;
2710;SDS011;20721;47.402;8.550;2022-07-10T06:12:35;5.15;;;5.15;;
2710;SDS011;20721;47.402;8.550;2022-07-10T06:13:35;5.44;;;5.44;;
2710;SDS011;20721;47.402;8.550;2022-07-10T06:14:35;4.87;;;4.87;;
2710;SDS011;20721;47.402;8.550;2022-07-10T06:15:35;5.46;;;5.46;;
2710;SDS011;20721;47.402;8.550;2022-07-10T06:16:39;4.99;;;4.99;;
2710;SDS011;20721;47.402;8.550;2022-07-10T06:17:35;4.80;;;4.80;;
2710;SDS011;20721;47.402;8.550;2022-07-10T06:18:35;5.64;;;5.64;;
2710;SDS011;20721;47.402;8.550;2022-07-10T06:19:35;5.21;;;5.21;;
2710;SDS011;20721;47.402;8.550;2022-07-10T06:20:36;5.86;;;5.86;;
2710;SDS011;20721;47.402;8.550;2022-07-10T06:21:35;5.82;;;5.82;;
2710;SDS011;20721;47.402;8.550;2022-07-10T06:23:35;5.49;;;5.49;;
2710;SDS011;20721;47.402;8.550;2022-07-10T06:24:35;5.16;;;5.16;;
2710;SDS011;20721;47.402;8.550;2022-07-10T06:26:35;5.26;;;5.26;;
2710;SDS011;20721;47.402;8.550;2022-07-10T06:27:35;5.24;;;5.24;;
2710;SDS011;20721;47.402;8.550;2022-07-10T06:28:36;5.41;;;5.41;;
2710;SDS011;20721;47.402;8.550;2022-07-10T06:29:35;5.17;;;5.17;;
2710;SDS011;20721;47.402;8.550;2022-07-10T06:30:35;5.43;;;5.43;;
2710;SDS011;20721;47.402;8.550;2022-07-10T06:31:35;6.13;;;6.13;;
2710;SDS011;20721;47.402;8.550;2022-07-10T06:32:36;6.25;;;6.25;;
2710;SDS011;20721;47.402;8.550;2022-07-10T06:33:35;5.64;;;5.64;;
2710;SDS011;20721;47.402;8.550;2022-07-10T06:34:35;5.00;;;5.00;;
2710;SDS011;20721;47.402;8.550;2022-07-10T06:35:35;5.47;;;5.47;;
2710;SDS011;20721;47.402;8.550;2022-07-10T06:36:40;5.05;;;5.05;;
2710;SDS011;20721;47.402;8.550;2022-07-10T06:37:36;5.06;;;5.06;;
2710;SDS011;20721;47.402;8.550;2022-07-10T06:38:35;4.71;;;4.71;;
2710;SDS011;20721;47.402;8.550;2022-07-10T06:39:36;5.24;;;5.24;;
2710;SDS011;20721;47.402;8.550;2022-07-10T06:40:36;5.34;;;5.34;;
2710;SDS011;20721;47.402;8.550;2022-07-10T06:41:35;5.20;;;5.20;;
2710;SDS011;20721;47.402;8.550;2022-07-10T06:42:35;5.31;;;5.31;;
2710;SDS011;20721;47.402;8.550;2022-07-10T06:43:35;4.69;;;4.69;;
2710;SDS011;20721;47.402;8.550;2022-07-10T06:44:35;4.62;;;4.62;;
2710;SDS011;20721;47.402;8.550;2022-07-10T06:45:35;5.00;;;5.00;;
2710;SDS011;20721;47.402;8.550;2022-07-10T06:46:35;4.73;;;4.73;;
2710;SDS011;20721;47.402;8.550;2022-07-10T06:47:50;4.34;;;4.34;;
2710;SDS011;20721;47.402;8.550;2022-07-10T06:48:36;4.24;;;4.24;;
2710;SDS011;20721;47.402;8.550;2022-07-10T06:49:35;4.70;;;4.70;;
2710;SDS011;20721;47.402;8.550;2022-07-10T06:50:36;4.32;;;4.32;;
2710;SDS011;20721;47.402;8.550;2022-07-10T06:51:35;4.55;;;4.55;;
2710;SDS011;20721;47.402;8.550;2022-07-10T06:52:35;4.49;;;4.49;;
2710;SDS011;20721;47.402;8.550;2022-07-10T06:53:39;5.27;;;5.27;;
2710;SDS011;20721;47.402;8.550;2022-07-10T06:54:35;4.63;;;4.63;;
2710;SDS011;20721;47.402;8.550;2022-07-10T06:55:36;4.61;;;4.61;;
2710;SDS011;20721;47.402;8.550;2022-07-10T06:56:35;4.91;;;4.91;;